sensor_id;sensor_type;location;lat;lon;timestamp;P1;durP1;ratioP1;P2;durP2;ratioP2
15814;SDS011;8008;50.024;8.172;2023-08-31T03:00:16;6.10;;;3.15;;
15814;SDS011;8008;50.024;8.172;2023-08-31T03:02:48;5.63;;;3.40;;
15814;SDS011;8008;50.024;8.172;2023-08-31T03:05:16;4.82;;;3.20;;
15814;SDS011;8008;50.024;8.172;2023-08-31T03:07:44;3.80;;;3.40;;
15814;SDS011;8008;50.024;8.172;2023-08-31T03:10:12;3.97;;;3.17;;
15814;SDS011;8008;50.024;8.172;2023-08-31T03:12:40;4.70;;;3.00;;
15814;SDS011;8008;50.024;8.172;2023-08-31T03:15:08;5.93;;;3.00;;
15814;SDS011;8008;50.024;8.172;2023-08-31T03:17:38;4.22;;;3.20;;
15814;SDS011;8008;50.024;8.172;2023-08-31T03:20:08;3.30;;;3.00;;
15814;SDS011;8008;50.024;8.172;2023-08-31T03:22:36;4.65;;;3.45;;
15814;SDS011;8008;50.024;8.172;2023-08-31T03:25:04;4.70;;;3.25;;
15814;SDS011;8008;50.024;8.172;2023-08-31T03:27:32;6.97;;;3.47;;
15814;SDS011;8008;50.024;8.172;2023-08-31T03:30:01;4.20;;;3.25;;
15814;SDS011;8008;50.024;8.172;2023-08-31T03:32:29;3.95;;;3.42;;
15814;SDS011;8008;50.024;8.172;2023-08-31T03:34:59;3.83;;;3.28;;
15814;SDS011;8008;50.024;8.172;2023-08-31T03:37:28;7.68;;;3.65;;
15814;SDS011;8008;50.024;8.172;2023-08-31T03:39:56;3.63;;;3.20;;
15814;SDS011;8008;50.024;8.172;2023-08-31T03:42:24;5.82;;;3.10;;
15814;SDS011;8008;50.024;8.172;2023-08-31T03:44:52;5.40;;;3.10;;
15814;SDS011;8008;50.024;8.172;2023-08-31T03:47:20;2.95;;;2.70;;
15814;SDS011;8008;50.024;8.172;2023-08-31T03:49:48;4.30;;;3.00;;
15814;SDS011;8008;50.024;8.172;2023-08-31T03:52:18;3.50;;;2.95;;
15814;SDS011;8008;50.024;8.172;2023-08-31T03:54:47;3.75;;;2.92;;
15814;SDS011;8008;50.024;8.172;2023-08-31T03:57:15;4.22;;;2.88;;
15814;SDS011;8008;50.024;8.172;2023-08-31T03:59:44;5.65;;;3.15;;
15814;SDS011;8008;50.024;8.172;2023-08-31T04:02:12;5.03;;;3.20;;
15814;SDS011;8008;50.024;8.172;2023-08-31T04:04:40;3.75;;;3.30;;
15814;SDS011;8008;50.024;8.172;2023-08-31T04:07:08;5.60;;;3.20;;
15814;SDS011;8008;50.024;8.172;2023-08-31T04:09:37;4.22;;;2.92;;
15814;SDS011;8008;50.024;8.172;2023-08-31T04:12:05;4.10;;;3.20;;
15814;SDS011;8008;50.024;8.172;2023-08-31T04:14:33;4.00;;;3.30;;
15814;SDS011;8008;50.024;8.172;2023-08-31T04:17:01;5.25;;;3.55;;
15814;SDS011;8008;50.024;8.172;2023-08-31T04:19:31;6.50;;;3.20;;
15814;SDS011;8008;50.024;8.172;2023-08-31T04:21:59;3.67;;;3.30;;
15814;SDS011;8008;50.024;8.172;2023-08-31T04:24:27;5.47;;;3.47;;
15814;SDS011;8008;50.024;8.172;2023-08-31T04:26:56;4.88;;;3.20;;
15814;SDS011;8008;50.024;8.172;2023-08-31T04:29:24;4.38;;;3.30;;
15814;SDS011;8008;50.024;8.172;2023-08-31T04:31:52;6.85;;;3.42;;
15814;SDS011;8008;50.024;8.172;2023-08-31T04:34:20;4.32;;;3.78;;
15814;SDS011;8008;50.024;8.172;2023-08-31T04:36:48;5.47;;;3.58;;
15814;SDS011;8008;50.024;8.172;2023-08-31T04:39:16;7.82;;;3.75;;
15814;SDS011;8008;50.024;8.172;2023-08-31T04:41:44;3.95;;;3.25;;
15814;SDS011;8008;50.024;8.172;2023-08-31T04:44:13;4.38;;;3.47;;
15814;SDS011;8008;50.024;8.172;2023-08-31T04:46:41;4.20;;;3.40;;
15814;SDS011;8008;50.024;8.172;2023-08-31T04:49:09;6.10;;;3.35;;
15814;SDS011;8008;50.024;8.172;2023-08-31T04:51:37;6.45;;;3.58;;
15814;SDS011;8008;50.024;8.172;2023-08-31T04:54:05;4.32;;;3.35;;
15814;SDS011;8008;50.024;8.172;2023-08-31T04:56:35;5.18;;;3.33;;
15814;SDS011;8008;50.024;8.172;2023-08-31T04:59:03;5.38;;;2.78;;
15814;SDS011;8008;50.024;8.172;2023-08-31T05:01:32;5.80;;;2.95;;
15814;SDS011;8008;50.024;8.172;2023-08-31T05:04:02;4.57;;;3.30;;
15814;SDS011;8008;50.024;8.172;2023-08-31T05:06:30;4.60;;;3.10;;
15814;SDS011;8008;50.024;8.172;2023-08-31T05:08:58;4.90;;;3.20;;
15814;SDS011;8008;50.024;8.172;2023-08-31T05:11:26;4.93;;;3.13;;
15814;SDS011;8008;50.024;8.172;2023-08-31T05:13:54;4.30;;;3.08;;
15814;SDS011;8008;50.024;8.172;2023-08-31T05:16:22;5.70;;;3.50;;
15814;SDS011;8008;50.024;8.172;2023-08-31T05:18:51;7.85;;;3.45;;
15814;SDS011;8008;50.024;8.172;2023-08-31T05:21:19;3.50;;;3.10;;
15814;SDS011;8008;50.024;8.172;2023-08-31T05:23:47;4.22;;;3.30;;
15814;SDS011;8008;50.024;8.172;2023-08-31T05:26:15;4.03;;;2.95;;
15814;SDS011;8008;50.024;8.172;2023-08-31T05:28:43;5.35;;;3.25;;
15814;SDS011;8008;50.024;8.172;2023-08-31T05:31:11;7.35;;;3.15;;
15814;SDS011;8008;50.024;8.172;2023-08-31T05:33:39;4.53;;;3.10;;
15814;SDS011;8008;50.024;8.172;2023-08-31T05:36:09;7.28;;;3.40;;
15814;SDS011;8008;50.024;8.172;2023-08-31T05:38:38;3.85;;;3.05;;
15814;SDS011;8008;50.024;8.172;2023-08-31T05:41:06;6.57;;;3.22;;
15814;SDS011;8008;50.024;8.172;2023-08-31T05:43:35;5.22;;;3.10;;
15814;SDS011;8008;50.024;8.172;2023-08-31T05:46:06;3.40;;;2.97;;
15814;SDS011;8008;50.024;8.172;2023-08-31T05:48:34;5.00;;;3.17;;
15814;SDS011;8008;50.024;8.172;2023-08-31T05:51:03;5.43;;;3.22;;
15814;SDS011;8008;50.024;8.172;2023-08-31T05:53:33;4.90;;;3.08;;
15814;SDS011;8008;50.024;8.172;2023-08-31T05:56:01;6.20;;;2.95;;
15814;SDS011;8008;50.024;8.172;2023-08-31T05:58:34;5.07;;;3.28;;
15814;SDS011;8008;50.024;8.172;2023-08-31T06:01:02;4.18;;;2.85;;
15814;SDS011;8008;50.024;8.172;2023-08-31T06:03:31;3.10;;;2.80;;
15814;SDS011;8008;50.024;8.172;2023-08-31T06:05:59;4.00;;;3.00;;
15814;SDS011;8008;50.024;8.172;2023-08-31T06:08:27;4.30;;;2.75;;
15814;SDS011;8008;50.024;8.172;2023-08-31T06:10:57;4.50;;;2.70;;
15814;SDS011;8008;50.024;8.172;2023-08-31T06:13:25;4.05;;;2.95;;
15814;SDS011;8008;50.024;8.172;2023-08-31T06:15:54;3.50;;;2.80;;
15814;SDS011;8008;50.024;8.172;2023-08-31T06:18:24;5.05;;;2.67;;
15814;SDS011;8008;50.024;8.172;2023-08-31T06:20:52;5.05;;;2.65;;
15814;SDS011;8008;50.024;8.172;2023-08-31T06:23:20;3.58;;;2.72;;
15814;SDS011;8008;50.024;8.172;2023-08-31T06:25:48;4.65;;;2.67;;
15814;SDS011;8008;50.024;8.172;2023-08-31T06:28:17;3.85;;;2.70;;
15814;SDS011;8008;50.024;8.172;2023-08-31T06:30:45;3.03;;;2.30;;
15814;SDS011;8008;50.024;8.172;2023-08-31T06:33:13;3.47;;;2.72;;
15814;SDS011;8008;50.024;8.172;2023-08-31T06:35:42;3.50;;;2.55;;
15814;SDS011;8008;50.024;8.172;2023-08-31T06:38:10;4.30;;;2.58;;
15814;SDS011;8008;50.024;8.172;2023-08-31T06:40:38;4.63;;;2.90;;
15814;SDS011;8008;50.024;8.172;2023-08-31T06:43:06;5.65;;;2.60;;
15814;SDS011;8008;50.024;8.172;2023-08-31T06:45:35;5.32;;;2.97;;
15814;SDS011;8008;50.024;8.172;2023-08-31T06:48:03;5.38;;;2.70;;
15814;SDS011;8008;50.024;8.172;2023-08-31T06:50:32;5.88;;;2.80;;
15814;SDS011;8008;50.024;8.172;2023-08-31T06:53:01;4.15;;;2.60;;
15814;SDS011;8008;50.024;8.172;2023-08-31T06:55:30;6.72;;;2.72;;
15814;SDS011;8008;50.024;8.172;2023-08-31T06:58:00;3.35;;;2.42;;
15814;SDS011;8008;50.024;8.172;2023-08-31T07:00:29;5.53;;;2.60;;
15814;SDS011;8008;50.024;8.172;2023-08-31T07:03:00;4.45;;;2.40;;
15814;SDS011;8008;50.024;8.172;2023-08-31T07:05:29;4.45;;;2.67;;
15814;SDS011;8008;50.024;8.172;2023-08-31T07:08:01;6.65;;;2.55;;
15814;SDS011;8008;50.024;8.172;2023-08-31T07:10:30;4.45;;;2.40;;
15814;SDS011;8008;50.024;8.172;2023-08-31T07:12:58;3.30;;;2.28;;
15814;SDS011;8008;50.024;8.172;2023-08-31T07:15:26;6.47;;;3.03;;
15814;SDS011;8008;50.024;8.172;2023-08-31T07:17:57;3.97;;;2.25;;
15814;SDS011;8008;50.024;8.172;2023-08-31T07:20:26;4.82;;;2.63;;
15814;SDS011;8008;50.024;8.172;2023-08-31T07:22:54;3.92;;;2.47;;
15814;SDS011;8008;50.024;8.172;2023-08-31T07:25:22;4.95;;;2.40;;
15814;SDS011;8008;50.024;8.172;2023-08-31T07:27:50;6.15;;;2.30;;
15814;SDS011;8008;50.024;8.172;2023-08-31T07:30:18;5.28;;;2.30;;
15814;SDS011;8008;50.024;8.172;2023-08-31T07:32:46;4.85;;;2.47;;
15814;SDS011;8008;50.024;8.172;2023-08-31T07:35:14;4.35;;;2.45;;
15814;SDS011;8008;50.024;8.172;2023-08-31T07:37:43;3.97;;;2.35;;
15814;SDS011;8008;50.024;8.172;2023-08-31T07:40:11;5.03;;;2.15;;
15814;SDS011;8008;50.024;8.172;2023-08-31T07:42:39;6.93;;;2.40;;
15814;SDS011;8008;50.024;8.172;2023-08-31T07:45:08;5.72;;;2.40;;
15814;SDS011;8008;50.024;8.172;2023-08-31T07:47:36;4.15;;;2.25;;
15814;SDS011;8008;50.024;8.172;2023-08-31T07:50:05;3.78;;;2.22;;
15814;SDS011;8008;50.024;8.172;2023-08-31T07:52:33;5.40;;;2.20;;
15814;SDS011;8008;50.024;8.172;2023-08-31T07:55:03;2.22;;;2.03;;
15814;SDS011;8008;50.024;8.172;2023-08-31T07:57:31;4.53;;;2.38;;
15814;SDS011;8008;50.024;8.172;2023-08-31T08:00:00;4.95;;;2.28;;
15814;SDS011;8008;50.024;8.172;2023-08-31T08:02:37;4.57;;;2.35;;
15814;SDS011;8008;50.024;8.172;2023-08-31T08:05:06;3.95;;;2.22;;
15814;SDS011;8008;50.024;8.172;2023-08-31T08:07:35;3.88;;;2.10;;
15814;SDS011;8008;50.024;8.172;2023-08-31T08:10:04;3.10;;;2.20;;
15814;SDS011;8008;50.024;8.172;2023-08-31T08:12:36;4.05;;;2.08;;
15814;SDS011;8008;50.024;8.172;2023-08-31T08:15:06;3.55;;;1.90;;
15814;SDS011;8008;50.024;8.172;2023-08-31T08:17:34;4.82;;;1.95;;
15814;SDS011;8008;50.024;8.172;2023-08-31T08:20:02;3.75;;;2.15;;
15814;SDS011;8008;50.024;8.172;2023-08-31T08:22:32;4.28;;;2.22;;
15814;SDS011;8008;50.024;8.172;2023-08-31T08:25:02;3.13;;;1.85;;
15814;SDS011;8008;50.024;8.172;2023-08-31T08:27:32;6.13;;;2.10;;
15814;SDS011;8008;50.024;8.172;2023-08-31T08:30:01;5.10;;;1.98;;
15814;SDS011;8008;50.024;8.172;2023-08-31T08:32:30;4.18;;;2.22;;
15814;SDS011;8008;50.024;8.172;2023-08-31T08:34:58;5.82;;;2.03;;
15814;SDS011;8008;50.024;8.172;2023-08-31T08:37:26;5.05;;;2.10;;
15814;SDS011;8008;50.024;8.172;2023-08-31T08:39:55;3.63;;;1.92;;
15814;SDS011;8008;50.024;8.172;2023-08-31T08:42:23;4.07;;;2.03;;
15814;SDS011;8008;50.024;8.172;2023-08-31T08:44:54;7.20;;;1.95;;
15814;SDS011;8008;50.024;8.172;2023-08-31T08:47:24;5.18;;;2.13;;
15814;SDS011;8008;50.024;8.172;2023-08-31T08:49:53;4.07;;;1.90;;
15814;SDS011;8008;50.024;8.172;2023-08-31T08:52:22;6.78;;;2.45;;
15814;SDS011;8008;50.024;8.172;2023-08-31T08:54:50;2.33;;;1.90;;
15814;SDS011;8008;50.024;8.172;2023-08-31T08:57:18;2.53;;;1.92;;
15814;SDS011;8008;50.024;8.172;2023-08-31T08:59:46;5.35;;;2.13;;
15814;SDS011;8008;50.024;8.172;2023-08-31T09:02:15;4.22;;;2.15;;
15814;SDS011;8008;50.024;8.172;2023-08-31T09:04:43;3.95;;;1.90;;
15814;SDS011;8008;50.024;8.172;2023-08-31T09:07:11;5.25;;;2.03;;
15814;SDS011;8008;50.024;8.172;2023-08-31T09:09:47;4.55;;;2.10;;
15814;SDS011;8008;50.024;8.172;2023-08-31T09:12:17;5.40;;;2.05;;
15814;SDS011;8008;50.024;8.172;2023-08-31T09:14:56;3.00;;;1.80;;
15814;SDS011;8008;50.024;8.172;2023-08-31T09:17:28;2.95;;;1.80;;
15814;SDS011;8008;50.024;8.172;2023-08-31T09:20:06;3.45;;;1.95;;
15814;SDS011;8008;50.024;8.172;2023-08-31T09:22:35;3.63;;;2.10;;
15814;SDS011;8008;50.024;8.172;2023-08-31T09:25:06;3.80;;;1.90;;
15814;SDS011;8008;50.024;8.172;2023-08-31T09:27:36;4.30;;;2.22;;
15814;SDS011;8008;50.024;8.172;2023-08-31T09:30:07;4.18;;;1.85;;
15814;SDS011;8008;50.024;8.172;2023-08-31T09:32:36;4.68;;;2.00;;
15814;SDS011;8008;50.024;8.172;2023-08-31T09:35:07;4.57;;;1.88;;
15814;SDS011;8008;50.024;8.172;2023-08-31T09:37:54;2.70;;;1.65;;
15814;SDS011;8008;50.024;8.172;2023-08-31T09:40:23;3.90;;;1.70;;
15814;SDS011;8008;50.024;8.172;2023-08-31T09:42:51;2.63;;;1.88;;
15814;SDS011;8008;50.024;8.172;2023-08-31T09:45:24;3.53;;;1.90;;
15814;SDS011;8008;50.024;8.172;2023-08-31T09:48:13;3.17;;;1.98;;
15814;SDS011;8008;50.024;8.172;2023-08-31T09:50:43;4.95;;;2.03;;
15814;SDS011;8008;50.024;8.172;2023-08-31T09:53:12;4.22;;;1.65;;
15814;SDS011;8008;50.024;8.172;2023-08-31T09:55:44;3.35;;;1.65;;
15814;SDS011;8008;50.024;8.172;2023-08-31T09:58:16;4.88;;;2.08;;
15814;SDS011;8008;50.024;8.172;2023-08-31T10:00:46;2.92;;;1.90;;
15814;SDS011;8008;50.024;8.172;2023-08-31T10:03:16;3.88;;;1.90;;
15814;SDS011;8008;50.024;8.172;2023-08-31T10:05:46;3.70;;;1.90;;
15814;SDS011;8008;50.024;8.172;2023-08-31T10:08:16;3.58;;;1.98;;
15814;SDS011;8008;50.024;8.172;2023-08-31T10:10:45;2.25;;;1.70;;
15814;SDS011;8008;50.024;8.172;2023-08-31T10:13:13;3.03;;;1.70;;
15814;SDS011;8008;50.024;8.172;2023-08-31T10:15:43;3.67;;;1.90;;
15814;SDS011;8008;50.024;8.172;2023-08-31T10:18:11;3.67;;;1.77;;
15814;SDS011;8008;50.024;8.172;2023-08-31T10:20:43;2.60;;;1.83;;
15814;SDS011;8008;50.024;8.172;2023-08-31T10:23:12;3.95;;;1.85;;
15814;SDS011;8008;50.024;8.172;2023-08-31T10:28:28;2.70;;;1.80;;
15814;SDS011;8008;50.024;8.172;2023-08-31T10:31:02;3.53;;;1.70;;
15814;SDS011;8008;50.024;8.172;2023-08-31T10:33:31;1.83;;;1.70;;
15814;SDS011;8008;50.024;8.172;2023-08-31T10:36:01;4.00;;;1.77;;
15814;SDS011;8008;50.024;8.172;2023-08-31T10:38:30;1.90;;;1.60;;
15814;SDS011;8008;50.024;8.172;2023-08-31T10:40:59;4.10;;;1.65;;
15814;SDS011;8008;50.024;8.172;2023-08-31T10:43:42;1.70;;;1.40;;
15814;SDS011;8008;50.024;8.172;2023-08-31T10:46:24;2.78;;;1.42;;
15814;SDS011;8008;50.024;8.172;2023-08-31T10:48:54;3.70;;;1.50;;
15814;SDS011;8008;50.024;8.172;2023-08-31T10:51:25;2.05;;;1.60;;
15814;SDS011;8008;50.024;8.172;2023-08-31T10:54:04;1.67;;;1.35;;
15814;SDS011;8008;50.024;8.172;2023-08-31T10:56:33;3.35;;;1.63;;
15814;SDS011;8008;50.024;8.172;2023-08-31T10:59:01;3.45;;;1.58;;
15814;SDS011;8008;50.024;8.172;2023-08-31T11:04:23;2.40;;;1.60;;
15814;SDS011;8008;50.024;8.172;2023-08-31T11:07:12;2.33;;;1.70;;
15814;SDS011;8008;50.024;8.172;2023-08-31T11:09:41;2.15;;;1.52;;
15814;SDS011;8008;50.024;8.172;2023-08-31T11:12:10;3.75;;;1.80;;
15814;SDS011;8008;50.024;8.172;2023-08-31T11:14:39;2.80;;;1.50;;
15814;SDS011;8008;50.024;8.172;2023-08-31T11:17:07;1.40;;;1.30;;
15814;SDS011;8008;50.024;8.172;2023-08-31T11:19:37;3.70;;;1.77;;
15814;SDS011;8008;50.024;8.172;2023-08-31T11:22:05;2.65;;;1.50;;
15814;SDS011;8008;50.024;8.172;2023-08-31T11:24:37;3.53;;;1.77;;
15814;SDS011;8008;50.024;8.172;2023-08-31T11:27:09;3.50;;;1.98;;
15814;SDS011;8008;50.024;8.172;2023-08-31T11:29:37;2.33;;;1.67;;
15814;SDS011;8008;50.024;8.172;2023-08-31T11:32:06;2.10;;;1.60;;
15814;SDS011;8008;50.024;8.172;2023-08-31T11:34:34;3.15;;;1.70;;
15814;SDS011;8008;50.024;8.172;2023-08-31T11:37:03;2.42;;;1.60;;
15814;SDS011;8008;50.024;8.172;2023-08-31T11:39:31;2.53;;;1.73;;
15814;SDS011;8008;50.024;8.172;2023-08-31T11:42:01;3.42;;;1.83;;
15814;SDS011;8008;50.024;8.172;2023-08-31T11:44:30;2.28;;;1.80;;
15814;SDS011;8008;50.024;8.172;2023-08-31T11:46:58;2.88;;;1.60;;
15814;SDS011;8008;50.024;8.172;2023-08-31T11:49:26;1.80;;;1.70;;
15814;SDS011;8008;50.024;8.172;2023-08-31T11:51:55;2.70;;;1.63;;
15814;SDS011;8008;50.024;8.172;2023-08-31T11:54:24;3.20;;;1.80;;
15814;SDS011;8008;50.024;8.172;2023-08-31T11:56:52;2.88;;;1.65;;
15814;SDS011;8008;50.024;8.172;2023-08-31T11:59:22;2.67;;;1.80;;
15814;SDS011;8008;50.024;8.172;2023-08-31T12:01:50;2.35;;;1.70;;
15814;SDS011;8008;50.024;8.172;2023-08-31T12:04:19;1.83;;;1.50;;
15814;SDS011;8008;50.024;8.172;2023-08-31T12:06:50;2.17;;;1.50;;
15814;SDS011;8008;50.024;8.172;2023-08-31T12:09:20;1.90;;;1.70;;
15814;SDS011;8008;50.024;8.172;2023-08-31T12:11:51;2.00;;;1.60;;
15814;SDS011;8008;50.024;8.172;2023-08-31T12:14:20;3.50;;;1.70;;
15814;SDS011;8008;50.024;8.172;2023-08-31T12:16:50;2.55;;;1.70;;
15814;SDS011;8008;50.024;8.172;2023-08-31T12:19:19;4.38;;;2.20;;
15814;SDS011;8008;50.024;8.172;2023-08-31T12:21:47;3.15;;;1.77;;
15814;SDS011;8008;50.024;8.172;2023-08-31T12:24:15;1.75;;;1.65;;
15814;SDS011;8008;50.024;8.172;2023-08-31T12:26:44;2.05;;;1.77;;
15814;SDS011;8008;50.024;8.172;2023-08-31T12:29:12;2.65;;;1.80;;
15814;SDS011;8008;50.024;8.172;2023-08-31T12:31:41;2.60;;;2.00;;
15814;SDS011;8008;50.024;8.172;2023-08-31T12:34:09;3.45;;;1.90;;
15814;SDS011;8008;50.024;8.172;2023-08-31T12:36:37;2.20;;;2.00;;
15814;SDS011;8008;50.024;8.172;2023-08-31T12:39:07;2.03;;;1.77;;
15814;SDS011;8008;50.024;8.172;2023-08-31T12:41:36;2.17;;;1.80;;
15814;SDS011;8008;50.024;8.172;2023-08-31T12:44:05;4.30;;;1.90;;
15814;SDS011;8008;50.024;8.172;2023-08-31T12:46:33;2.33;;;1.85;;
15814;SDS011;8008;50.024;8.172;2023-08-31T12:49:03;2.13;;;1.90;;
15814;SDS011;8008;50.024;8.172;2023-08-31T12:51:31;2.63;;;1.92;;
15814;SDS011;8008;50.024;8.172;2023-08-31T12:53:59;2.40;;;1.90;;
15814;SDS011;8008;50.024;8.172;2023-08-31T12:56:27;2.70;;;1.98;;
15814;SDS011;8008;50.024;8.172;2023-08-31T12:58:56;3.20;;;1.90;;
15814;SDS011;8008;50.024;8.172;2023-08-31T13:01:24;2.08;;;1.70;;
15814;SDS011;8008;50.024;8.172;2023-08-31T13:03:52;3.97;;;2.03;;
15814;SDS011;8008;50.024;8.172;2023-08-31T13:06:22;3.45;;;1.80;;
15814;SDS011;8008;50.024;8.172;2023-08-31T13:08:51;2.10;;;1.75;;
15814;SDS011;8008;50.024;8.172;2023-08-31T13:11:19;3.75;;;2.08;;
15814;SDS011;8008;50.024;8.172;2023-08-31T13:13:49;2.75;;;1.90;;
15814;SDS011;8008;50.024;8.172;2023-08-31T13:16:18;4.47;;;2.17;;
15814;SDS011;8008;50.024;8.172;2023-08-31T13:18:48;2.55;;;1.85;;
15814;SDS011;8008;50.024;8.172;2023-08-31T13:21:16;4.05;;;1.92;;
15814;SDS011;8008;50.024;8.172;2023-08-31T13:23:45;4.15;;;1.90;;
15814;SDS011;8008;50.024;8.172;2023-08-31T13:26:14;2.92;;;1.88;;
15814;SDS011;8008;50.024;8.172;2023-08-31T13:28:41;5.47;;;2.40;;
15814;SDS011;8008;50.024;8.172;2023-08-31T13:31:10;2.75;;;1.80;;
15814;SDS011;8008;50.024;8.172;2023-08-31T13:33:38;2.90;;;1.98;;
15814;SDS011;8008;50.024;8.172;2023-08-31T13:36:06;5.80;;;2.05;;
15814;SDS011;8008;50.024;8.172;2023-08-31T13:38:35;7.53;;;2.35;;
15814;SDS011;8008;50.024;8.172;2023-08-31T13:41:04;3.03;;;1.90;;
15814;SDS011;8008;50.024;8.172;2023-08-31T13:43:34;3.72;;;2.00;;
15814;SDS011;8008;50.024;8.172;2023-08-31T13:46:02;2.88;;;1.98;;
15814;SDS011;8008;50.024;8.172;2023-08-31T13:48:31;3.10;;;2.10;;
15814;SDS011;8008;50.024;8.172;2023-08-31T13:50:59;3.15;;;1.80;;
15814;SDS011;8008;50.024;8.172;2023-08-31T13:53:27;4.13;;;2.20;;
15814;SDS011;8008;50.024;8.172;2023-08-31T13:55:55;4.30;;;2.10;;
15814;SDS011;8008;50.024;8.172;2023-08-31T13:58:24;4.45;;;2.05;;
15814;SDS011;8008;50.024;8.172;2023-08-31T14:00:52;3.28;;;1.90;;
15814;SDS011;8008;50.024;8.172;2023-08-31T14:03:20;5.60;;;2.10;;
15814;SDS011;8008;50.024;8.172;2023-08-31T14:05:49;4.00;;;2.00;;
15814;SDS011;8008;50.024;8.172;2023-08-31T14:08:17;2.97;;;1.98;;
15814;SDS011;8008;50.024;8.172;2023-08-31T14:10:45;3.28;;;2.15;;
15814;SDS011;8008;50.024;8.172;2023-08-31T14:13:13;3.30;;;2.03;;
15814;SDS011;8008;50.024;8.172;2023-08-31T14:15:45;6.90;;;2.40;;
15814;SDS011;8008;50.024;8.172;2023-08-31T14:18:13;4.13;;;2.15;;
15814;SDS011;8008;50.024;8.172;2023-08-31T14:20:42;3.60;;;1.95;;
15814;SDS011;8008;50.024;8.172;2023-08-31T14:23:10;3.92;;;1.80;;
15814;SDS011;8008;50.024;8.172;2023-08-31T14:25:38;3.70;;;2.10;;
15814;SDS011;8008;50.024;8.172;2023-08-31T14:28:06;3.35;;;1.83;;
15814;SDS011;8008;50.024;8.172;2023-08-31T14:30:35;5.80;;;2.40;;
15814;SDS011;8008;50.024;8.172;2023-08-31T14:33:04;4.30;;;2.25;;
15814;SDS011;8008;50.024;8.172;2023-08-31T14:35:35;6.03;;;2.25;;
15814;SDS011;8008;50.024;8.172;2023-08-31T14:38:03;4.47;;;2.10;;
15814;SDS011;8008;50.024;8.172;2023-08-31T14:40:32;5.72;;;2.15;;
15814;SDS011;8008;50.024;8.172;2023-08-31T14:43:00;4.80;;;2.28;;
15814;SDS011;8008;50.024;8.172;2023-08-31T14:45:28;3.60;;;2.20;;
15814;SDS011;8008;50.024;8.172;2023-08-31T14:47:56;4.60;;;1.92;;
15814;SDS011;8008;50.024;8.172;2023-08-31T14:50:25;3.15;;;2.10;;
15814;SDS011;8008;50.024;8.172;2023-08-31T14:52:53;3.28;;;1.95;;
15814;SDS011;8008;50.024;8.172;2023-08-31T14:55:21;4.80;;;2.25;;
15814;SDS011;8008;50.024;8.172;2023-08-31T14:57:50;3.85;;;2.30;;
15814;SDS011;8008;50.024;8.172;2023-08-31T15:00:18;4.30;;;2.40;;
15814;SDS011;8008;50.024;8.172;2023-08-31T15:02:46;3.40;;;2.00;;
15814;SDS011;8008;50.024;8.172;2023-08-31T15:05:15;3.97;;;2.15;;
15814;SDS011;8008;50.024;8.172;2023-08-31T15:07:44;4.18;;;2.38;;
15814;SDS011;8008;50.024;8.172;2023-08-31T15:10:12;5.30;;;2.30;;
15814;SDS011;8008;50.024;8.172;2023-08-31T15:12:40;4.35;;;2.25;;
15814;SDS011;8008;50.024;8.172;2023-08-31T15:15:09;3.17;;;2.13;;
15814;SDS011;8008;50.024;8.172;2023-08-31T15:17:37;5.88;;;2.33;;
15814;SDS011;8008;50.024;8.172;2023-08-31T15:20:06;5.15;;;2.30;;
15814;SDS011;8008;50.024;8.172;2023-08-31T15:22:35;5.85;;;2.58;;
15814;SDS011;8008;50.024;8.172;2023-08-31T15:25:05;5.28;;;2.20;;
15814;SDS011;8008;50.024;8.172;2023-08-31T15:27:33;3.92;;;2.20;;
15814;SDS011;8008;50.024;8.172;2023-08-31T15:30:01;4.05;;;2.40;;
15814;SDS011;8008;50.024;8.172;2023-08-31T15:32:31;6.25;;;2.42;;
15814;SDS011;8008;50.024;8.172;2023-08-31T15:34:59;4.65;;;2.13;;
15814;SDS011;8008;50.024;8.172;2023-08-31T15:37:27;8.27;;;2.30;;
15814;SDS011;8008;50.024;8.172;2023-08-31T15:39:55;6.40;;;2.60;;
15814;SDS011;8008;50.024;8.172;2023-08-31T15:42:25;4.47;;;2.35;;
15814;SDS011;8008;50.024;8.172;2023-08-31T15:44:54;6.43;;;2.45;;
15814;SDS011;8008;50.024;8.172;2023-08-31T15:47:22;8.80;;;2.55;;
15814;SDS011;8008;50.024;8.172;2023-08-31T15:49:50;4.63;;;2.08;;
15814;SDS011;8008;50.024;8.172;2023-08-31T15:52:19;5.40;;;2.03;;
15814;SDS011;8008;50.024;8.172;2023-08-31T15:54:47;4.22;;;2.40;;
15814;SDS011;8008;50.024;8.172;2023-08-31T15:57:15;4.10;;;2.20;;
15814;SDS011;8008;50.024;8.172;2023-08-31T15:59:46;5.57;;;2.80;;
15814;SDS011;8008;50.024;8.172;2023-08-31T16:02:14;4.15;;;2.17;;
15814;SDS011;8008;50.024;8.172;2023-08-31T16:04:42;6.25;;;2.38;;
15814;SDS011;8008;50.024;8.172;2023-08-31T16:07:13;3.97;;;2.47;;
15814;SDS011;8008;50.024;8.172;2023-08-31T16:09:41;5.90;;;2.55;;
15814;SDS011;8008;50.024;8.172;2023-08-31T16:12:09;5.55;;;2.25;;
15814;SDS011;8008;50.024;8.172;2023-08-31T16:14:37;4.85;;;2.53;;
15814;SDS011;8008;50.024;8.172;2023-08-31T16:17:06;3.67;;;2.40;;
15814;SDS011;8008;50.024;8.172;2023-08-31T16:19:34;4.38;;;2.20;;
15814;SDS011;8008;50.024;8.172;2023-08-31T16:22:02;4.15;;;2.45;;
15814;SDS011;8008;50.024;8.172;2023-08-31T16:24:31;5.22;;;2.45;;
15814;SDS011;8008;50.024;8.172;2023-08-31T16:26:59;4.97;;;2.50;;
15814;SDS011;8008;50.024;8.172;2023-08-31T16:29:27;6.45;;;2.72;;
15814;SDS011;8008;50.024;8.172;2023-08-31T16:31:55;5.72;;;2.40;;
15814;SDS011;8008;50.024;8.172;2023-08-31T16:34:24;4.32;;;2.35;;
15814;SDS011;8008;50.024;8.172;2023-08-31T16:36:52;4.38;;;2.10;;
15814;SDS011;8008;50.024;8.172;2023-08-31T16:39:20;4.95;;;2.30;;
15814;SDS011;8008;50.024;8.172;2023-08-31T16:41:48;4.45;;;2.50;;
15814;SDS011;8008;50.024;8.172;2023-08-31T16:44:17;4.47;;;2.25;;
15814;SDS011;8008;50.024;8.172;2023-08-31T16:46:45;3.33;;;2.35;;
15814;SDS011;8008;50.024;8.172;2023-08-31T16:49:13;3.70;;;2.20;;
15814;SDS011;8008;50.024;8.172;2023-08-31T16:51:42;4.40;;;2.17;;
15814;SDS011;8008;50.024;8.172;2023-08-31T16:54:10;3.35;;;2.28;;
15814;SDS011;8008;50.024;8.172;2023-08-31T16:56:39;6.53;;;2.60;;
15814;SDS011;8008;50.024;8.172;2023-08-31T16:59:07;5.28;;;2.30;;
15814;SDS011;8008;50.024;8.172;2023-08-31T17:01:34;7.07;;;2.67;;
15814;SDS011;8008;50.024;8.172;2023-08-31T17:04:03;4.35;;;2.28;;
15814;SDS011;8008;50.024;8.172;2023-08-31T17:06:33;7.03;;;2.67;;
15814;SDS011;8008;50.024;8.172;2023-08-31T17:09:03;5.32;;;2.47;;
15814;SDS011;8008;50.024;8.172;2023-08-31T17:11:33;5.13;;;2.50;;
15814;SDS011;8008;50.024;8.172;2023-08-31T17:14:03;6.57;;;2.20;;
15814;SDS011;8008;50.024;8.172;2023-08-31T17:16:32;7.15;;;2.72;;
15814;SDS011;8008;50.024;8.172;2023-08-31T17:19:00;3.65;;;2.40;;
15814;SDS011;8008;50.024;8.172;2023-08-31T17:21:29;6.32;;;2.58;;
15814;SDS011;8008;50.024;8.172;2023-08-31T17:23:57;4.20;;;2.30;;
15814;SDS011;8008;50.024;8.172;2023-08-31T17:26:26;5.47;;;2.45;;
15814;SDS011;8008;50.024;8.172;2023-08-31T17:28:54;5.10;;;2.60;;
15814;SDS011;8008;50.024;8.172;2023-08-31T17:31:22;5.65;;;2.28;;
15814;SDS011;8008;50.024;8.172;2023-08-31T17:33:50;4.68;;;2.40;;
15814;SDS011;8008;50.024;8.172;2023-08-31T17:36:19;7.43;;;2.90;;
15814;SDS011;8008;50.024;8.172;2023-08-31T17:38:48;4.00;;;2.22;;
15814;SDS011;8008;50.024;8.172;2023-08-31T17:41:16;8.60;;;2.58;;
15814;SDS011;8008;50.024;8.172;2023-08-31T17:43:46;5.40;;;2.50;;
15814;SDS011;8008;50.024;8.172;2023-08-31T17:46:14;8.07;;;2.55;;
15814;SDS011;8008;50.024;8.172;2023-08-31T17:48:42;6.32;;;2.40;;
15814;SDS011;8008;50.024;8.172;2023-08-31T17:51:11;3.47;;;2.28;;
15814;SDS011;8008;50.024;8.172;2023-08-31T17:53:39;5.97;;;2.50;;
15814;SDS011;8008;50.024;8.172;2023-08-31T17:56:07;5.13;;;2.42;;
15814;SDS011;8008;50.024;8.172;2023-08-31T17:58:35;5.45;;;2.60;;
15814;SDS011;8008;50.024;8.172;2023-08-31T18:01:05;5.90;;;2.50;;
15814;SDS011;8008;50.024;8.172;2023-08-31T18:03:32;5.82;;;2.42;;
15814;SDS011;8008;50.024;8.172;2023-08-31T18:06:01;5.47;;;2.50;;
15814;SDS011;8008;50.024;8.172;2023-08-31T18:08:31;5.95;;;2.47;;
15814;SDS011;8008;50.024;8.172;2023-08-31T18:11:00;5.07;;;2.17;;
15814;SDS011;8008;50.024;8.172;2023-08-31T18:13:29;4.43;;;2.25;;
15814;SDS011;8008;50.024;8.172;2023-08-31T18:15:57;6.95;;;2.40;;